createdAt,value
2023-11-13T00:01:54.993Z,2.71
2023-11-13T00:04:21.525Z,2.73
2023-11-13T00:06:47.955Z,2.71
2023-11-13T00:09:14.345Z,2.79
2023-11-13T00:11:40.718Z,2.84
2023-11-13T00:14:07.319Z,2.81
2023-11-13T00:16:33.824Z,2.84
2023-11-13T00:19:00.435Z,2.81
2023-11-13T00:21:26.945Z,2.84
2023-11-13T00:23:53.349Z,2.86
2023-11-13T00:26:19.816Z,2.88
2023-11-13T00:28:46.616Z,2.94
2023-11-13T00:31:14.395Z,2.94
2023-11-13T00:33:40.971Z,2.92
2023-11-13T00:36:07.479Z,2.74
2023-11-13T00:38:33.946Z,2.57
2023-11-13T00:41:03.320Z,2.50
2023-11-13T00:43:29.939Z,2.48
2023-11-13T00:45:56.491Z,2.30
2023-11-13T00:48:22.897Z,2.18
2023-11-13T00:50:49.278Z,2.11
2023-11-13T00:53:15.940Z,2.20
2023-11-13T00:55:42.347Z,2.18
2023-11-13T00:58:08.868Z,2.33
2023-11-13T01:00:37.926Z,2.45
2023-11-13T01:03:05.501Z,2.45
2023-11-13T01:05:34.212Z,2.42
2023-11-13T01:08:00.649Z,2.46
2023-11-13T01:10:27.449Z,2.48
2023-11-13T01:12:54.312Z,2.59
2023-11-13T01:15:21.481Z,2.75
2023-11-13T01:17:48.040Z,2.86
2023-11-13T01:20:14.827Z,3.01
2023-11-13T01:22:41.464Z,3.06
2023-11-13T01:25:08.511Z,3.10
2023-11-13T01:27:35.592Z,3.10
2023-11-13T01:30:01.962Z,3.12
2023-11-13T01:32:28.364Z,3.07
2023-11-13T01:34:54.759Z,3.09
2023-11-13T01:37:24.153Z,3.17
2023-11-13T01:39:50.665Z,3.13
2023-11-13T01:42:17.519Z,3.13
2023-11-13T01:44:43.886Z,3.16
2023-11-13T01:47:11.457Z,3.15
2023-11-13T01:49:37.942Z,3.13
2023-11-13T01:52:04.778Z,3.09
2023-11-13T01:54:31.203Z,3.06
2023-11-13T01:56:57.770Z,3.06
2023-11-13T01:59:24.133Z,3.01
2023-11-13T02:01:50.624Z,3.00
2023-11-13T02:04:17.387Z,2.92
2023-11-13T02:06:45.367Z,2.96
2023-11-13T02:09:14.618Z,2.91
2023-11-13T02:11:43.319Z,2.90
2023-11-13T02:14:09.788Z,2.91
2023-11-13T02:16:36.314Z,2.90
2023-11-13T02:19:02.867Z,2.86
2023-11-13T02:21:29.249Z,2.95
2023-11-13T02:23:55.855Z,2.92
2023-11-13T02:26:25.093Z,2.83
2023-11-13T02:28:52.209Z,2.79
2023-11-13T02:31:19.031Z,2.76
2023-11-13T02:33:45.579Z,2.70
2023-11-13T02:36:11.943Z,2.68
2023-11-13T02:38:38.361Z,2.67
2023-11-13T02:41:04.774Z,2.63
2023-11-13T02:43:31.154Z,2.61
2023-11-13T02:45:57.683Z,2.51
2023-11-13T02:48:24.189Z,2.39
2023-11-13T02:50:53.149Z,2.39
2023-11-13T02:53:20.348Z,2.36
2023-11-13T02:55:47.229Z,2.35
2023-11-13T02:58:13.703Z,2.36
2023-11-13T03:00:41.490Z,2.30
2023-11-13T03:03:07.956Z,2.41
2023-11-13T03:05:34.404Z,2.49
2023-11-13T03:08:00.862Z,2.48
2023-11-13T03:10:27.261Z,2.50
2023-11-13T03:12:53.993Z,2.49
2023-11-13T03:15:20.462Z,2.47
2023-11-13T03:17:46.869Z,2.44
2023-11-13T03:20:13.889Z,2.35
2023-11-13T03:22:40.422Z,2.35
2023-11-13T03:25:06.981Z,2.39
2023-11-13T03:27:33.427Z,2.28
2023-11-13T03:29:59.810Z,2.25
2023-11-13T03:32:26.467Z,2.20
2023-11-13T03:34:53.111Z,2.32
2023-11-13T03:37:19.498Z,2.46
2023-11-13T03:39:45.908Z,2.42
2023-11-13T03:42:12.324Z,2.40
2023-11-13T03:44:38.750Z,2.38
2023-11-13T03:47:05.402Z,2.38
2023-11-13T03:49:31.811Z,2.39
2023-11-13T03:51:58.238Z,2.46
2023-11-13T03:54:24.610Z,2.40
2023-11-13T03:56:51.042Z,2.46
2023-11-13T03:59:17.514Z,2.46
2023-11-13T04:01:45.940Z,2.46
2023-11-13T04:04:12.428Z,2.50
2023-11-13T04:06:38.867Z,2.49
2023-11-13T04:09:07.355Z,2.54
2023-11-13T04:11:33.729Z,2.56
2023-11-13T04:14:00.102Z,2.55
2023-11-13T04:16:26.820Z,2.63
2023-11-13T04:18:53.581Z,2.72
2023-11-13T04:21:19.975Z,2.70
2023-11-13T04:23:46.328Z,2.74
2023-11-13T04:26:12.713Z,2.79
2023-11-13T04:28:41.241Z,2.85
2023-11-13T04:31:09.250Z,2.88
2023-11-13T04:33:36.527Z,2.91
2023-11-13T04:36:03.274Z,2.88
2023-11-13T04:38:29.847Z,2.85
2023-11-13T04:40:56.570Z,2.85
2023-11-13T04:43:23.040Z,2.96
2023-11-13T04:45:49.693Z,3.05
2023-11-13T04:48:16.098Z,3.07
2023-11-13T04:50:42.462Z,3.09
2023-11-13T04:53:08.849Z,3.16
2023-11-13T04:55:35.319Z,3.30
2023-11-13T04:58:03.237Z,3.30
2023-11-13T05:00:29.742Z,3.31
2023-11-13T05:02:56.206Z,3.38
2023-11-13T05:05:22.577Z,3.43
2023-11-13T05:07:49.035Z,3.35
2023-11-13T05:10:15.503Z,3.32
2023-11-13T05:12:41.975Z,3.28
2023-11-13T05:15:08.457Z,3.28
2023-11-13T05:17:38.435Z,3.22
2023-11-13T05:20:06.410Z,3.17
2023-11-13T05:22:33.838Z,3.12
2023-11-13T05:25:00.698Z,3.21
2023-11-13T05:27:27.082Z,3.22
2023-11-13T05:29:53.599Z,3.29
2023-11-13T05:32:20.030Z,3.38
2023-11-13T05:34:46.435Z,3.35
2023-11-13T05:37:13.733Z,3.35
2023-11-13T05:39:40.210Z,3.40
2023-11-13T05:42:06.617Z,3.43
2023-11-13T05:44:35.751Z,3.42
2023-11-13T05:47:02.296Z,3.45
2023-11-13T05:49:28.880Z,3.54
2023-11-13T05:51:55.296Z,3.55
2023-11-13T05:54:21.693Z,3.54
2023-11-13T05:56:48.222Z,3.63
2023-11-13T05:59:16.142Z,3.56
2023-11-13T06:01:42.614Z,3.61
2023-11-13T06:04:09.064Z,3.57
2023-11-13T06:06:35.530Z,3.63
2023-11-13T06:09:01.956Z,3.66
2023-11-13T06:11:28.825Z,3.65
2023-11-13T06:13:56.960Z,3.64
2023-11-13T06:16:23.794Z,3.65
2023-11-13T06:18:54.286Z,3.71
2023-11-13T06:21:20.852Z,3.64
2023-11-13T06:23:47.215Z,3.69
2023-11-13T06:26:16.491Z,3.71
2023-11-13T06:28:42.987Z,3.73
2023-11-13T06:31:12.471Z,3.77
2023-11-13T06:33:39.189Z,3.81
2023-11-13T06:36:11.598Z,3.85
2023-11-13T06:38:38.043Z,3.96
2023-11-13T06:41:05.536Z,4.01
2023-11-13T06:43:32.399Z,4.04
2023-11-13T06:46:03.462Z,4.00
2023-11-13T06:48:34.196Z,4.09
2023-11-13T06:51:01.021Z,4.09
2023-11-13T06:53:27.870Z,4.12
2023-11-13T06:55:54.371Z,4.15
2023-11-13T06:58:23.368Z,4.14
2023-11-13T07:00:50.954Z,4.13
2023-11-13T07:03:19.377Z,4.13
2023-11-13T07:05:47.097Z,4.15
2023-11-13T07:08:14.572Z,4.20
2023-11-13T07:10:44.427Z,4.22
2023-11-13T07:13:12.810Z,4.18
2023-11-13T07:15:39.489Z,4.17
2023-11-13T07:18:06.375Z,4.20
2023-11-13T07:20:33.921Z,4.26
2023-11-13T07:23:00.330Z,4.31
2023-11-13T07:25:26.740Z,4.35
2023-11-13T07:27:53.500Z,4.40
2023-11-13T07:30:19.960Z,4.44
2023-11-13T07:32:46.379Z,4.48
2023-11-13T07:35:12.891Z,4.52
2023-11-13T07:37:39.296Z,4.61
2023-11-13T07:40:11.414Z,4.66
2023-11-13T07:42:37.942Z,4.69
2023-11-13T07:45:05.009Z,4.70
2023-11-13T07:47:31.478Z,4.75
2023-11-13T07:50:00.784Z,4.78
2023-11-13T07:52:28.248Z,4.79
2023-11-13T07:54:55.920Z,4.83
2023-11-13T07:57:22.660Z,4.84
2023-11-13T07:59:49.318Z,4.83
2023-11-13T08:02:16.467Z,4.85
2023-11-13T08:04:42.904Z,4.85
2023-11-13T08:07:17.326Z,4.88
2023-11-13T08:09:49.839Z,4.84
2023-11-13T08:12:16.230Z,4.91
2023-11-13T08:14:42.968Z,4.91
2023-11-13T08:17:09.552Z,4.93
2023-11-13T08:19:36.148Z,4.95
2023-11-13T08:22:03.147Z,4.94
2023-11-13T08:24:31.086Z,4.94
2023-11-13T08:26:57.466Z,4.88
2023-11-13T08:29:25.664Z,4.90
2023-11-13T08:31:52.124Z,4.89
2023-11-13T08:34:20.605Z,4.94
2023-11-13T08:36:47.035Z,4.86
2023-11-13T08:39:18.118Z,4.82
2023-11-13T08:41:45.027Z,4.83
2023-11-13T08:44:12.488Z,4.81
2023-11-13T08:46:39.056Z,4.81
2023-11-13T08:49:07.526Z,4.86
2023-11-13T08:51:35.178Z,4.87
2023-11-13T08:54:01.566Z,4.93
2023-11-13T08:56:28.134Z,4.93
2023-11-13T08:58:55.294Z,5.01
2023-11-13T09:01:27.068Z,5.03
2023-11-13T09:03:55.500Z,5.05
2023-11-13T09:06:22.103Z,5.05
2023-11-13T09:08:49.563Z,5.10
2023-11-13T09:11:17.966Z,5.11
2023-11-13T09:13:47.804Z,5.14
2023-11-13T09:16:15.539Z,5.19
2023-11-13T09:18:42.541Z,5.13
2023-11-13T09:21:08.978Z,5.11
2023-11-13T09:23:37.715Z,5.16
2023-11-13T09:26:05.664Z,5.13
2023-11-13T09:28:34.540Z,5.14
2023-11-13T09:31:01.408Z,5.13
2023-11-13T09:33:29.517Z,5.17
2023-11-13T09:35:56.117Z,5.18
2023-11-13T09:38:22.491Z,5.19
2023-11-13T09:40:48.903Z,5.19
2023-11-13T09:43:16.845Z,5.20
2023-11-13T09:45:45.315Z,5.22
2023-11-13T09:48:12.444Z,5.21
2023-11-13T09:50:39.252Z,5.24
2023-11-13T09:53:05.693Z,5.23
2023-11-13T09:55:32.120Z,5.25
2023-11-13T09:58:02.062Z,5.15
2023-11-13T10:00:31.355Z,5.22
2023-11-13T10:02:57.767Z,5.20
2023-11-13T10:05:31.426Z,5.22
2023-11-13T10:07:58.430Z,5.29
2023-11-13T10:10:28.529Z,5.31
2023-11-13T10:12:55.667Z,5.30
2023-11-13T10:15:28.673Z,5.36
2023-11-13T10:17:57.922Z,5.37
2023-11-13T10:20:24.796Z,5.38
2023-11-13T10:23:01.445Z,5.41
2023-11-13T10:25:28.610Z,5.42
2023-11-13T10:28:02.460Z,5.42
2023-11-13T10:30:28.899Z,5.39
2023-11-13T10:32:55.564Z,5.47
2023-11-13T10:35:28.887Z,5.49
2023-11-13T10:37:56.349Z,5.51
2023-11-13T10:40:32.503Z,5.54
2023-11-13T10:42:59.008Z,5.51
2023-11-13T10:45:25.387Z,5.56
2023-11-13T10:47:53.243Z,5.57
2023-11-13T10:50:20.849Z,5.60
2023-11-13T10:52:47.799Z,5.66
2023-11-13T10:55:14.191Z,5.72
2023-11-13T10:57:40.884Z,5.78
2023-11-13T11:00:13.481Z,5.77
2023-11-13T11:02:46.439Z,5.92
2023-11-13T11:05:23.459Z,5.92
2023-11-13T11:07:56.970Z,5.99
2023-11-13T11:10:29.014Z,5.97
2023-11-13T11:13:01.571Z,5.95
2023-11-13T11:15:36.056Z,6.02
2023-11-13T11:18:14.701Z,6.01
2023-11-13T11:21:11.233Z,6.05
2023-11-13T11:23:40.184Z,6.13
2023-11-13T11:26:07.042Z,6.11
2023-11-13T11:28:46.695Z,6.14
2023-11-13T11:31:33.790Z,6.12
2023-11-13T11:34:00.586Z,6.16
2023-11-13T11:36:32.014Z,6.19
2023-11-13T11:39:20.439Z,6.23
2023-11-13T11:41:47.230Z,6.19
2023-11-13T11:44:14.511Z,6.13
2023-11-13T11:46:52.418Z,6.14
2023-11-13T11:49:26.770Z,6.19
2023-11-13T11:52:12.622Z,6.24
2023-11-13T11:54:39.962Z,6.19
2023-11-13T11:57:08.650Z,6.20
2023-11-13T11:59:35.743Z,6.23
2023-11-13T12:02:05.407Z,6.25
2023-11-13T12:04:32.229Z,6.19
2023-11-13T12:07:02.980Z,6.18
2023-11-13T12:09:29.503Z,6.22
2023-11-13T12:11:56.039Z,6.25
2023-11-13T12:14:22.515Z,6.29
2023-11-13T12:16:51.786Z,6.30
2023-11-13T12:19:18.267Z,6.33
2023-11-13T12:21:45.019Z,6.37
2023-11-13T12:24:11.951Z,6.44
2023-11-13T12:26:39.221Z,6.55
2023-11-13T12:29:13.336Z,6.59
2023-11-13T12:31:39.774Z,6.65
2023-11-13T12:34:06.461Z,6.61
2023-11-13T12:36:32.868Z,6.63
2023-11-13T12:39:02.141Z,6.65
2023-11-13T12:41:28.494Z,6.68
2023-11-13T12:43:54.880Z,6.68
2023-11-13T12:46:24.515Z,6.73
2023-11-13T12:48:52.217Z,6.71
2023-11-13T12:51:18.687Z,6.73
2023-11-13T12:53:48.596Z,6.77
2023-11-13T12:56:15.401Z,6.78
2023-11-13T12:58:41.841Z,6.81
2023-11-13T13:01:08.432Z,6.86
2023-11-13T13:03:36.145Z,6.93
2023-11-13T13:06:04.124Z,6.96
2023-11-13T13:08:31.386Z,6.94
2023-11-13T13:10:59.515Z,6.97
2023-11-13T13:13:25.946Z,6.99
2023-11-13T13:15:52.405Z,7.00
2023-11-13T13:18:18.772Z,6.97
2023-11-13T13:20:45.554Z,6.99
2023-11-13T13:23:11.961Z,7.05
2023-11-13T13:25:38.684Z,7.10
2023-11-13T13:28:05.640Z,7.13
2023-11-13T13:30:37.648Z,7.11
2023-11-13T13:33:10.998Z,7.15
2023-11-13T13:35:38.424Z,7.18
2023-11-13T13:38:07.685Z,7.15
2023-11-13T13:40:34.458Z,7.16
2023-11-13T13:43:01.623Z,7.16
2023-11-13T13:45:28.766Z,7.14
2023-11-13T13:47:55.453Z,7.20
2023-11-13T13:50:22.388Z,7.21
2023-11-13T13:52:58.547Z,7.21
2023-11-13T13:55:29.057Z,7.26
2023-11-13T13:57:57.972Z,7.34
2023-11-13T14:00:35.770Z,7.38
2023-11-13T14:03:06.592Z,7.40
2023-11-13T14:05:37.020Z,7.44
2023-11-13T14:08:05.058Z,7.51
2023-11-13T14:10:40.695Z,7.52
2023-11-13T14:13:07.468Z,7.59
2023-11-13T14:15:34.094Z,7.65
2023-11-13T14:18:01.226Z,7.67
2023-11-13T14:20:28.382Z,7.70
2023-11-13T14:22:59.875Z,7.74
2023-11-13T14:25:28.024Z,7.81
2023-11-13T14:27:54.924Z,7.80
2023-11-13T14:30:30.325Z,7.81
2023-11-13T14:32:59.183Z,7.85
2023-11-13T14:35:27.152Z,7.85
2023-11-13T14:37:53.899Z,7.90
2023-11-13T14:40:20.540Z,7.90
2023-11-13T14:42:46.984Z,7.85
2023-11-13T14:45:13.927Z,7.79
2023-11-13T14:47:41.589Z,7.79
2023-11-13T14:50:09.103Z,7.81
2023-11-13T14:52:41.950Z,7.84
2023-11-13T14:55:09.160Z,7.83
2023-11-13T14:57:35.564Z,7.91
2023-11-13T15:00:02.053Z,8.01
2023-11-13T15:02:28.589Z,8.05
2023-11-13T15:04:55.134Z,8.10
2023-11-13T15:07:21.587Z,8.05
2023-11-13T15:09:48.023Z,8.07
2023-11-13T15:12:14.683Z,8.11
2023-11-13T15:14:41.414Z,8.13
2023-11-13T15:17:08.231Z,8.20
2023-11-13T15:19:35.399Z,8.22
2023-11-13T15:22:01.907Z,8.28
2023-11-13T15:24:28.590Z,8.26
2023-11-13T15:26:55.389Z,8.26
2023-11-13T15:29:22.435Z,8.27
2023-11-13T15:31:49.610Z,8.29
2023-11-13T15:34:24.195Z,8.31
2023-11-13T15:36:55.410Z,8.31
2023-11-13T15:39:21.768Z,8.28
2023-11-13T15:41:48.239Z,8.31
2023-11-13T15:44:14.606Z,8.29
2023-11-13T15:46:43.600Z,8.32
2023-11-13T15:49:10.553Z,8.33
2023-11-13T15:51:37.804Z,8.38
2023-11-13T15:54:04.199Z,8.39
2023-11-13T15:56:30.980Z,8.50
2023-11-13T15:58:57.394Z,8.49
2023-11-13T16:01:23.879Z,8.56
2023-11-13T16:03:50.799Z,8.55
2023-11-13T16:06:17.317Z,8.55
2023-11-13T16:08:43.953Z,8.55
2023-11-13T16:11:10.762Z,8.57
2023-11-13T16:13:37.255Z,8.59
2023-11-13T16:16:03.878Z,8.58
2023-11-13T16:18:31.243Z,8.55
2023-11-13T16:20:57.656Z,8.71
2023-11-13T16:23:24.073Z,8.75
2023-11-13T16:25:55.276Z,8.78
2023-11-13T16:28:22.980Z,8.81
2023-11-13T16:30:49.550Z,8.81
2023-11-13T16:33:16.029Z,8.85
2023-11-13T16:35:45.368Z,8.94
2023-11-13T16:38:12.863Z,8.83
2023-11-13T16:40:40.028Z,8.90
2023-11-13T16:43:06.715Z,9.07
2023-11-13T16:45:33.461Z,9.15
2023-11-13T16:48:01.078Z,9.13
2023-11-13T16:50:27.866Z,9.17
2023-11-13T16:52:54.413Z,9.19
2023-11-13T16:55:20.877Z,9.14
2023-11-13T16:57:47.258Z,9.07
2023-11-13T17:00:13.928Z,9.03
2023-11-13T17:02:50.634Z,9.09
2023-11-13T17:05:17.897Z,9.15
2023-11-13T17:07:45.179Z,9.10
2023-11-13T17:10:12.118Z,9.06
2023-11-13T17:12:39.128Z,9.00
2023-11-13T17:15:07.001Z,9.14
2023-11-13T17:17:33.531Z,9.25
2023-11-13T17:20:00.719Z,9.07
2023-11-13T17:22:27.400Z,9.00
2023-11-13T17:24:53.823Z,9.11
2023-11-13T17:27:20.766Z,9.57
2023-11-13T17:29:47.373Z,9.53
2023-11-13T17:32:15.798Z,9.67
2023-11-13T17:34:42.322Z,9.71
2023-11-13T17:37:08.939Z,9.83
2023-11-13T17:39:35.336Z,9.84
2023-11-13T17:42:01.709Z,9.86
2023-11-13T17:44:28.109Z,10.28
2023-11-13T17:46:54.619Z,10.45
2023-11-13T17:49:22.929Z,10.34
2023-11-13T17:51:50.651Z,10.37
2023-11-13T17:54:17.120Z,10.34
2023-11-13T17:56:43.528Z,10.30
2023-11-13T17:59:10.373Z,10.57
2023-11-13T18:01:39.149Z,10.52
2023-11-13T18:04:08.754Z,10.85
2023-11-13T18:06:37.377Z,10.82
2023-11-13T18:09:04.016Z,10.76
2023-11-13T18:11:30.406Z,10.70
2023-11-13T18:13:57.176Z,10.79
2023-11-13T18:16:23.766Z,10.76
2023-11-13T18:18:50.229Z,10.77
2023-11-13T18:21:16.607Z,10.81
2023-11-13T18:23:42.983Z,10.94
2023-11-13T18:26:09.399Z,10.90
2023-11-13T18:28:35.927Z,10.89
2023-11-13T18:31:02.387Z,11.03
2023-11-13T18:33:31.629Z,10.97
2023-11-13T18:35:58.538Z,10.97
2023-11-13T18:38:25.965Z,10.98
2023-11-13T18:40:52.654Z,10.97
2023-11-13T18:43:19.537Z,10.87
2023-11-13T18:45:50.542Z,10.93
2023-11-13T18:48:17.083Z,10.93
2023-11-13T18:50:43.473Z,10.89
2023-11-13T18:53:10.120Z,10.87
2023-11-13T18:55:38.074Z,10.88
2023-11-13T18:58:05.893Z,10.88
2023-11-13T19:00:32.737Z,10.79
2023-11-13T19:02:59.228Z,10.79
2023-11-13T19:05:28.103Z,10.75
2023-11-13T19:07:54.570Z,10.80
2023-11-13T19:10:21.548Z,10.83
2023-11-13T19:12:48.114Z,10.89
2023-11-13T19:15:14.537Z,10.85
2023-11-13T19:17:41.101Z,10.87
2023-11-13T19:20:11.035Z,10.90
2023-11-13T19:22:37.680Z,10.84
2023-11-13T19:25:04.721Z,10.63
2023-11-13T19:27:31.087Z,10.40
2023-11-13T19:29:57.524Z,10.29
2023-11-13T19:32:24.423Z,10.27
2023-11-13T19:38:18.767Z,10.06
2023-11-13T19:40:45.161Z,10.10
2023-11-13T19:43:11.508Z,10.07
2023-11-13T19:45:37.852Z,10.12
2023-11-13T19:48:04.430Z,10.10
2023-11-13T19:50:35.209Z,10.10
2023-11-13T19:53:02.375Z,10.18
2023-11-13T19:55:29.033Z,10.00
2023-11-13T19:57:56.182Z,10.08
2023-11-13T20:00:23.620Z,10.16
2023-11-13T20:02:51.783Z,10.09
2023-11-13T20:05:18.507Z,10.22
2023-11-13T20:07:46.155Z,10.24
2023-11-13T20:10:12.926Z,10.13
2023-11-13T20:12:39.469Z,10.04
2023-11-13T20:15:07.809Z,10.03
2023-11-13T20:17:34.539Z,10.00
2023-11-13T20:20:01.010Z,9.95
2023-11-13T20:22:27.434Z,10.05
2023-11-13T20:24:53.786Z,10.00
2023-11-13T20:27:21.726Z,9.89
2023-11-13T20:29:48.100Z,9.88
2023-11-13T20:32:14.665Z,9.94
2023-11-13T20:34:41.545Z,10.07
2023-11-13T20:37:08.290Z,10.03
2023-11-13T20:39:34.708Z,9.96
2023-11-13T20:42:01.140Z,9.93
2023-11-13T20:44:27.672Z,9.93
2023-11-13T20:46:54.325Z,10.00
2023-11-13T20:49:22.595Z,10.07
2023-11-13T20:51:49.511Z,10.03
2023-11-13T20:54:15.883Z,9.99
2023-11-13T20:56:42.228Z,9.95
2023-11-13T20:59:08.664Z,10.02
2023-11-13T21:01:35.111Z,9.95
2023-11-13T21:04:01.583Z,9.81
2023-11-13T21:06:28.005Z,9.87
2023-11-13T21:08:54.919Z,9.83
2023-11-13T21:11:21.335Z,9.77
2023-11-13T21:13:47.784Z,9.70
2023-11-13T21:16:14.148Z,9.72
2023-11-13T21:18:40.524Z,9.65
2023-11-13T21:21:06.874Z,9.64
2023-11-13T21:23:33.259Z,9.64
2023-11-13T21:26:01.899Z,9.60
2023-11-13T21:28:28.379Z,9.51
2023-11-13T21:30:55.810Z,9.54
2023-11-13T21:33:22.475Z,9.42
2023-11-13T21:35:49.093Z,9.31
2023-11-13T21:38:15.588Z,9.24
2023-11-13T21:40:43.523Z,9.30
2023-11-13T21:43:10.901Z,9.25
2023-11-13T21:45:38.673Z,9.32
2023-11-13T21:48:05.224Z,9.35
2023-11-13T21:50:31.620Z,9.29
2023-11-13T21:52:58.040Z,9.45
2023-11-13T21:55:25.954Z,9.44
2023-11-13T21:57:52.437Z,9.45
2023-11-13T22:00:18.828Z,9.41
2023-11-13T22:02:45.485Z,9.46
2023-11-13T22:05:12.031Z,9.49
2023-11-13T22:07:40.803Z,9.51
2023-11-13T22:10:08.404Z,9.53
2023-11-13T22:12:35.004Z,9.58
2023-11-13T22:15:07.359Z,9.59
2023-11-13T22:17:34.123Z,9.49
2023-11-13T22:20:01.684Z,9.51
2023-11-13T22:22:28.546Z,9.51
2023-11-13T22:24:56.320Z,9.42
2023-11-13T22:27:22.750Z,9.48
2023-11-13T22:29:49.123Z,9.54
2023-11-13T22:32:15.577Z,9.55
2023-11-13T22:34:42.444Z,9.60
2023-11-13T22:37:08.896Z,9.57
2023-11-13T22:39:35.262Z,9.52
2023-11-13T22:42:03.541Z,9.46
2023-11-13T22:44:30.456Z,9.51
2023-11-13T22:46:57.002Z,9.50
2023-11-13T22:49:23.822Z,9.56
2023-11-13T22:51:50.262Z,9.56
2023-11-13T22:54:16.642Z,9.54
2023-11-13T22:56:44.257Z,9.53
2023-11-13T22:59:10.658Z,9.59
2023-11-13T23:01:37.495Z,9.50
2023-11-13T23:04:05.722Z,9.59
2023-11-13T23:06:33.967Z,9.63
2023-11-13T23:09:00.405Z,9.60
2023-11-13T23:11:27.041Z,9.55
2023-11-13T23:13:57.244Z,9.56
2023-11-13T23:16:23.996Z,9.52
2023-11-13T23:18:50.526Z,9.63
2023-11-13T23:21:19.059Z,9.58
2023-11-13T23:23:45.485Z,9.60
2023-11-13T23:26:11.854Z,9.60
2023-11-13T23:28:38.265Z,9.67
2023-11-13T23:31:04.770Z,9.56
2023-11-13T23:33:31.163Z,9.68
2023-11-13T23:35:57.548Z,9.62
2023-11-13T23:38:25.204Z,9.67
2023-11-13T23:40:51.740Z,9.58
2023-11-13T23:43:18.278Z,9.67
2023-11-13T23:45:46.006Z,9.66
2023-11-13T23:48:14.141Z,9.65
2023-11-13T23:50:43.570Z,9.56
2023-11-13T23:53:11.250Z,9.57
2023-11-13T23:55:37.685Z,9.70
2023-11-13T23:58:04.141Z,9.66
